createdAt,value
2019-05-14T00:03:21.745Z,8.90
2019-05-14T00:07:11.585Z,8.90
2019-05-14T00:11:01.204Z,8.80
2019-05-14T00:14:45.241Z,8.70
2019-05-14T00:18:26.833Z,8.70
2019-05-14T00:22:02.826Z,8.60
2019-05-14T00:25:45.381Z,8.50
2019-05-14T00:29:11.157Z,8.50
2019-05-14T00:32:53.573Z,8.50
2019-05-14T00:36:31.972Z,8.40
2019-05-14T00:40:15.050Z,8.40
2019-05-14T00:43:51.395Z,8.30
2019-05-14T00:47:34.299Z,8.20
2019-05-14T00:50:57.671Z,8.10
2019-05-14T00:54:41.743Z,8.00
2019-05-14T00:58:25.354Z,8.00
2019-05-14T01:02:07.938Z,8.00
2019-05-14T01:29:47.768Z,7.80
2019-05-14T01:33:11.828Z,7.80
2019-05-14T01:36:56.242Z,7.70
2019-05-14T01:40:38.825Z,7.70
2019-05-14T01:44:15.044Z,7.60
2019-05-14T01:47:38.297Z,7.50
2019-05-14T01:51:01.856Z,7.50
2019-05-14T01:54:24.983Z,7.50
2019-05-14T01:57:48.164Z,7.40
2019-05-14T02:01:12.010Z,7.30
2019-05-14T02:04:35.558Z,7.40
2019-05-14T02:07:58.854Z,7.40
2019-05-14T02:11:21.982Z,7.30
2019-05-14T02:14:45.154Z,7.30
2019-05-14T02:18:08.592Z,7.20
2019-05-14T02:21:31.949Z,7.20
2019-05-14T02:24:55.641Z,7.20
2019-05-14T02:28:18.889Z,7.20
2019-05-14T02:31:42.061Z,7.10
2019-05-14T02:35:05.355Z,7.00
2019-05-14T02:38:29.981Z,7.00
2019-05-14T02:41:53.526Z,7.00
2019-05-14T02:45:19.723Z,6.90
2019-05-14T02:48:42.121Z,6.80
2019-05-14T02:52:05.665Z,6.80
2019-05-14T02:55:29.973Z,6.80
2019-05-14T02:58:53.724Z,6.80
2019-05-14T03:02:18.755Z,6.70
2019-05-14T03:05:42.803Z,6.70
2019-05-14T03:09:09.387Z,6.70
2019-05-14T03:12:31.606Z,6.60
2019-05-14T03:15:54.891Z,6.60
2019-05-14T03:19:19.588Z,6.50
2019-05-14T03:22:58.715Z,6.40
2019-05-14T03:26:09.587Z,6.50
2019-05-14T03:29:33.009Z,6.50
2019-05-14T03:33:01.993Z,6.50
2019-05-14T03:36:26.734Z,6.50
2019-05-14T03:39:49.376Z,6.40
2019-05-14T03:43:12.294Z,6.40
2019-05-14T03:46:45.938Z,6.30
2019-05-14T03:50:00.590Z,6.30
2019-05-14T03:53:24.376Z,6.20
2019-05-14T03:56:49.620Z,6.20
2019-05-14T04:00:13.323Z,6.10
2019-05-14T04:03:39.571Z,6.10
2019-05-14T04:07:03.645Z,6.20
2019-05-14T04:10:30.094Z,6.20
2019-05-14T04:13:59.862Z,6.20
2019-05-14T04:17:32.399Z,6.20
2019-05-14T04:20:50.434Z,6.30
2019-05-14T04:24:14.340Z,6.30
2019-05-14T04:27:40.393Z,6.30
2019-05-14T04:31:04.885Z,6.40
2019-05-14T04:34:30.068Z,6.40
2019-05-14T04:37:53.576Z,6.40
2019-05-14T04:41:19.521Z,6.40
2019-05-14T04:44:42.372Z,6.40
2019-05-14T04:48:26.404Z,6.40
2019-05-14T04:51:30.710Z,6.40
2019-05-14T04:54:54.121Z,6.40
2019-05-14T04:58:21.545Z,6.40
2019-05-14T05:01:44.127Z,6.50
2019-05-14T05:05:09.113Z,6.50
2019-05-14T05:08:32.609Z,6.50
2019-05-14T05:11:55.927Z,6.50
2019-05-14T05:15:19.923Z,6.50
2019-05-14T05:18:43.807Z,6.60
2019-05-14T05:22:08.014Z,6.70
2019-05-14T05:25:32.578Z,6.80
2019-05-14T05:29:05.545Z,6.90
2019-05-14T05:32:54.127Z,7.00
2019-05-14T05:36:18.783Z,7.10
2019-05-14T05:39:42.118Z,7.30
2019-05-14T05:43:05.461Z,7.40
2019-05-14T05:46:29.024Z,7.40
2019-05-14T05:49:52.478Z,7.50
2019-05-14T05:53:16.257Z,7.50
2019-05-14T05:56:39.736Z,8.00
2019-05-14T06:00:04.898Z,8.10
2019-05-14T06:03:30.152Z,8.20
2019-05-14T06:06:54.597Z,8.20
2019-05-14T06:10:21.010Z,8.30
2019-05-14T06:13:55.463Z,8.40
2019-05-14T06:17:19.413Z,8.50
2019-05-14T06:20:42.949Z,8.60
2019-05-14T06:24:08.873Z,8.80
2019-05-14T06:27:32.251Z,8.90
2019-05-14T06:30:59.018Z,9.10
2019-05-14T06:34:22.901Z,9.30
2019-05-14T06:37:48.809Z,9.50
2019-05-14T06:41:12.460Z,9.70
2019-05-14T06:44:38.574Z,9.80
2019-05-14T06:48:02.412Z,9.90
2019-05-14T06:51:28.710Z,10.00
2019-05-14T06:54:52.010Z,10.00
2019-05-14T06:58:15.743Z,10.10
2019-05-14T07:01:39.615Z,10.20
2019-05-14T07:05:03.732Z,10.40
2019-05-14T07:08:28.506Z,10.80
2019-05-14T07:11:52.618Z,11.20
2019-05-14T07:15:18.243Z,11.50
2019-05-14T07:18:49.614Z,11.90
2019-05-14T07:22:08.883Z,12.20
2019-05-14T07:25:32.831Z,12.50
2019-05-14T07:28:58.907Z,12.70
2019-05-14T07:32:28.533Z,12.90
2019-05-14T07:35:50.800Z,13.00
2019-05-14T07:39:14.366Z,13.30
2019-05-14T07:42:38.341Z,13.40
2019-05-14T07:46:02.774Z,13.50
2019-05-14T07:49:25.889Z,13.60
2019-05-14T07:52:49.745Z,13.60
2019-05-14T07:56:13.481Z,13.50
2019-05-14T07:59:38.073Z,13.40
2019-05-14T08:03:01.461Z,13.30
2019-05-14T08:06:24.652Z,13.30
2019-05-14T08:09:48.148Z,13.60
2019-05-14T08:13:11.608Z,13.90
2019-05-14T08:16:34.754Z,14.20
2019-05-14T08:19:58.405Z,14.50
2019-05-14T08:23:22.830Z,14.80
2019-05-14T08:26:46.104Z,15.00
2019-05-14T08:30:09.975Z,15.10
2019-05-14T08:33:33.333Z,14.80
2019-05-14T08:36:58.711Z,14.60
2019-05-14T08:40:21.686Z,14.40
2019-05-14T08:43:44.929Z,14.10
2019-05-14T08:47:09.563Z,14.10
2019-05-14T08:50:33.149Z,14.10
2019-05-14T08:53:58.952Z,14.20
2019-05-14T08:57:22.757Z,14.40
2019-05-14T09:00:48.084Z,14.60
2019-05-14T09:04:11.194Z,14.90
2019-05-14T09:07:34.405Z,14.90
2019-05-14T09:10:58.996Z,14.80
2019-05-14T09:14:23.699Z,14.80
2019-05-14T09:17:48.341Z,14.90
2019-05-14T09:21:12.568Z,15.10
2019-05-14T09:24:38.444Z,15.20
2019-05-14T09:28:01.775Z,15.40
2019-05-14T09:31:24.957Z,15.60
2019-05-14T09:34:48.845Z,15.80
2019-05-14T09:38:12.478Z,16.20
2019-05-14T09:41:35.705Z,16.60
2019-05-14T09:44:59.616Z,17.00
2019-05-14T09:48:23.158Z,17.30
2019-05-14T09:51:48.738Z,17.90
2019-05-14T09:55:11.556Z,18.60
2019-05-14T09:58:34.899Z,18.90
2019-05-14T10:01:58.575Z,18.60
2019-05-14T10:05:22.343Z,18.60
2019-05-14T10:08:45.576Z,19.70
2019-05-14T10:12:09.157Z,20.80
2019-05-14T10:15:33.473Z,21.00
2019-05-14T10:18:56.680Z,21.60
2019-05-14T10:22:21.042Z,22.90
2019-05-14T10:25:44.886Z,24.00
2019-05-14T10:29:08.692Z,25.00
2019-05-14T10:32:32.261Z,24.60
2019-05-14T10:35:55.937Z,22.90
2019-05-14T10:39:19.378Z,23.50
2019-05-14T10:42:42.964Z,24.80
2019-05-14T10:46:08.867Z,25.90
2019-05-14T10:49:31.210Z,26.70
2019-05-14T10:52:54.300Z,27.50
2019-05-14T10:56:19.253Z,27.40
2019-05-14T10:59:42.828Z,28.00
2019-05-14T11:03:06.217Z,29.60
2019-05-14T11:06:29.575Z,29.50
2019-05-14T11:09:53.884Z,29.80
2019-05-14T11:13:19.026Z,29.50
2019-05-14T11:16:42.163Z,29.20
2019-05-14T11:20:07.968Z,29.00
2019-05-14T11:23:31.121Z,27.70
2019-05-14T11:26:54.237Z,27.00
2019-05-14T11:30:19.321Z,26.80
2019-05-14T11:33:42.802Z,25.80
2019-05-14T11:37:08.542Z,26.40
2019-05-14T11:40:33.238Z,28.60
2019-05-14T11:43:59.205Z,28.80
2019-05-14T11:47:21.536Z,30.40
2019-05-14T11:50:44.713Z,31.80
2019-05-14T11:54:09.497Z,32.50
2019-05-14T11:57:33.283Z,33.30
2019-05-14T12:00:58.453Z,33.60
2019-05-14T12:04:21.620Z,32.90
2019-05-14T12:07:44.861Z,31.90
2019-05-14T12:11:08.800Z,31.70
2019-05-14T12:14:33.271Z,32.30
2019-05-14T12:17:59.393Z,33.00
2019-05-14T12:21:21.803Z,33.30
2019-05-14T12:24:44.927Z,33.90
2019-05-14T12:28:13.410Z,34.20
2019-05-14T12:31:33.330Z,34.70
2019-05-14T12:34:59.193Z,34.40
2019-05-14T12:38:21.785Z,34.60
2019-05-14T12:41:46.010Z,34.90
2019-05-14T12:45:10.270Z,35.50
2019-05-14T12:48:33.921Z,35.40
2019-05-14T12:51:59.195Z,36.60
2019-05-14T12:55:22.452Z,36.10
2019-05-14T12:58:48.810Z,36.50
2019-05-14T13:02:11.679Z,36.70
2019-05-14T13:05:34.878Z,38.20
2019-05-14T13:08:58.703Z,38.30
2019-05-14T13:12:22.087Z,36.90
2019-05-14T13:15:45.281Z,37.60
2019-05-14T13:19:09.198Z,38.00
2019-05-14T13:22:42.551Z,38.20
2019-05-14T13:25:58.886Z,38.40
2019-05-14T13:29:22.634Z,38.70
2019-05-14T13:32:48.544Z,39.10
2019-05-14T13:36:12.225Z,40.10
2019-05-14T13:39:35.519Z,38.10
2019-05-14T13:42:58.919Z,35.90
2019-05-14T13:46:22.872Z,34.00
2019-05-14T13:49:48.501Z,35.50
2019-05-14T13:53:12.740Z,37.40
2019-05-14T13:56:38.871Z,36.10
2019-05-14T14:00:01.813Z,37.10
2019-05-14T14:03:25.461Z,38.50
2019-05-14T14:06:49.518Z,38.40
2019-05-14T14:10:23.902Z,38.30
2019-05-14T14:14:08.978Z,38.20
2019-05-14T14:17:32.472Z,37.70
2019-05-14T14:20:55.737Z,38.10
2019-05-14T14:24:19.687Z,38.40
2019-05-14T14:27:42.996Z,38.40
2019-05-14T14:31:10.831Z,36.50
2019-05-14T14:34:32.550Z,36.00
2019-05-14T14:37:55.962Z,36.80
2019-05-14T14:41:19.999Z,37.80
2019-05-14T14:44:43.172Z,38.60
2019-05-14T14:48:16.414Z,40.00
2019-05-14T14:51:58.741Z,39.40
2019-05-14T14:55:21.197Z,39.60
2019-05-14T14:58:49.110Z,36.20
2019-05-14T15:02:11.623Z,34.70
2019-05-14T15:05:35.374Z,33.40
2019-05-14T15:08:59.056Z,32.80
2019-05-14T15:12:22.483Z,34.10
2019-05-14T15:15:55.190Z,35.50
2019-05-14T15:19:22.197Z,36.30
2019-05-14T15:22:50.026Z,37.00
2019-05-14T15:26:13.966Z,36.80
2019-05-14T15:29:39.047Z,37.70
2019-05-14T15:33:03.242Z,37.60
2019-05-14T15:36:26.962Z,38.20
2019-05-14T15:39:50.511Z,38.60
2019-05-14T15:43:19.425Z,38.90
2019-05-14T15:46:45.856Z,39.30
2019-05-14T15:50:09.652Z,39.00
2019-05-14T15:53:33.444Z,38.90
2019-05-14T15:56:58.756Z,38.10
2019-05-14T16:00:22.251Z,37.80
2019-05-14T16:04:23.651Z,38.50
2019-05-14T16:07:51.073Z,38.10
2019-05-14T16:11:14.431Z,38.00
2019-05-14T16:14:40.046Z,37.40
2019-05-14T16:18:09.297Z,37.50
2019-05-14T16:21:28.983Z,37.10
2019-05-14T16:24:56.939Z,35.90
2019-05-14T16:28:19.513Z,34.40
2019-05-14T16:31:43.760Z,32.00
2019-05-14T16:35:08.891Z,30.50
2019-05-14T16:38:32.683Z,29.20
2019-05-14T16:41:58.159Z,29.50
2019-05-14T16:45:21.458Z,29.60
2019-05-14T16:48:44.923Z,29.50
2019-05-14T16:52:09.389Z,29.10
2019-05-14T16:55:32.847Z,27.90
2019-05-14T16:58:58.350Z,27.10
2019-05-14T17:02:23.447Z,26.90
2019-05-14T17:05:48.657Z,26.20
2019-05-14T17:09:18.785Z,25.30
2019-05-14T17:12:52.473Z,24.30
2019-05-14T17:28:14.549Z,21.50
2019-05-14T17:31:39.103Z,21.00
2019-05-14T17:35:02.456Z,20.60
2019-05-14T17:38:26.153Z,20.30
2019-05-14T17:41:49.334Z,20.00
2019-05-14T17:45:12.907Z,19.60
2019-05-14T17:48:36.076Z,19.20
2019-05-14T17:51:59.396Z,18.80
2019-05-14T17:55:24.528Z,18.60
2019-05-14T17:59:08.591Z,18.30
2019-05-14T18:02:32.022Z,18.00
2019-05-14T18:05:58.793Z,17.80
2019-05-14T18:09:22.200Z,17.60
2019-05-14T18:12:47.963Z,17.50
2019-05-14T18:16:10.739Z,17.30
2019-05-14T18:19:34.046Z,17.20
2019-05-14T18:22:58.295Z,17.10
2019-05-14T18:26:25.880Z,17.00
2019-05-14T18:29:49.476Z,16.90
2019-05-14T18:33:14.324Z,16.70
2019-05-14T18:36:39.528Z,16.70
2019-05-14T18:40:03.581Z,16.50
2019-05-14T18:43:28.919Z,16.40
2019-05-14T18:46:53.453Z,16.20
2019-05-14T18:50:19.676Z,16.00
2019-05-14T18:53:48.907Z,15.80
2019-05-14T18:57:12.287Z,15.70
2019-05-14T19:00:38.642Z,15.60
2019-05-14T19:04:01.795Z,15.50
2019-05-14T19:07:25.414Z,15.30
2019-05-14T19:10:49.707Z,15.10
2019-05-14T19:14:13.438Z,15.00
2019-05-14T19:17:38.583Z,14.80
2019-05-14T19:21:02.435Z,14.70
2019-05-14T19:24:28.983Z,14.50
2019-05-14T19:27:52.251Z,14.40
2019-05-14T19:31:18.362Z,14.20
2019-05-14T19:34:42.258Z,14.10
2019-05-14T19:38:08.749Z,13.90
2019-05-14T19:41:31.761Z,13.80
2019-05-14T19:45:01.374Z,13.70
2019-05-14T19:48:26.075Z,13.60
2019-05-14T19:51:51.028Z,13.50
2019-05-14T19:55:19.701Z,13.40
2019-05-14T19:58:43.465Z,13.20
2019-05-14T20:02:09.512Z,13.00
2019-05-14T20:05:33.422Z,12.90
2019-05-14T20:08:58.746Z,12.80
2019-05-14T20:12:22.351Z,12.60
2019-05-14T20:15:45.604Z,12.50
2019-05-14T20:19:11.240Z,12.30
2019-05-14T20:22:34.830Z,12.20
2019-05-14T20:25:58.674Z,12.10
2019-05-14T20:29:22.284Z,11.90
2019-05-14T20:32:45.908Z,11.90
2019-05-14T20:36:09.527Z,11.70
2019-05-14T20:39:33.602Z,11.60
2019-05-14T20:42:58.851Z,11.50
2019-05-14T20:46:23.311Z,11.40
2019-05-14T20:49:46.803Z,11.30
2019-05-14T20:53:09.891Z,11.20
2019-05-14T20:56:33.086Z,11.10
2019-05-14T20:59:58.758Z,11.00
2019-05-14T21:03:21.898Z,10.90
2019-05-14T21:06:45.739Z,10.80
2019-05-14T21:10:09.994Z,10.70
2019-05-14T21:13:33.327Z,10.70
2019-05-14T21:16:59.678Z,10.60
2019-05-14T21:20:23.074Z,10.60
2019-05-14T21:23:48.848Z,10.60
2019-05-14T21:27:11.940Z,10.50
2019-05-14T21:30:35.534Z,10.50
2019-05-14T21:33:58.948Z,10.40
2019-05-14T21:37:23.510Z,10.30
2019-05-14T21:40:47.162Z,10.20
2019-05-14T21:44:10.848Z,10.10
2019-05-14T21:47:35.122Z,10.10
2019-05-14T21:51:00.813Z,10.10
2019-05-14T21:54:24.253Z,10.00
2019-05-14T21:57:56.124Z,10.00
2019-05-14T22:01:13.247Z,9.90
2019-05-14T22:04:38.480Z,9.80
2019-05-14T22:08:01.976Z,9.80
2019-05-14T22:11:25.170Z,9.70
2019-05-14T22:14:48.621Z,9.60
2019-05-14T22:18:17.553Z,9.60
2019-05-14T22:21:41.877Z,9.50
2019-05-14T22:25:04.388Z,9.60
2019-05-14T22:28:28.845Z,9.50
2019-05-14T22:31:52.162Z,9.50
2019-05-14T22:35:15.332Z,9.50
2019-05-14T22:38:39.121Z,9.50
2019-05-14T22:42:02.385Z,9.50
2019-05-14T22:45:28.169Z,9.40
2019-05-14T22:48:51.660Z,9.40
2019-05-14T22:52:18.783Z,9.40
2019-05-14T22:55:42.677Z,9.40
2019-05-14T22:59:06.151Z,9.30
2019-05-14T23:02:29.314Z,9.30
2019-05-14T23:05:52.597Z,9.30
2019-05-14T23:09:18.502Z,9.20
2019-05-14T23:12:41.060Z,9.20
2019-05-14T23:16:04.358Z,9.20
2019-05-14T23:19:28.205Z,9.20
2019-05-14T23:22:51.370Z,9.20
2019-05-14T23:26:14.591Z,9.20
2019-05-14T23:29:38.516Z,9.10
2019-05-14T23:33:02.084Z,9.10
2019-05-14T23:36:25.410Z,9.00
2019-05-14T23:39:49.245Z,9.00
2019-05-14T23:43:12.450Z,9.00
2019-05-14T23:46:35.976Z,8.90
2019-05-14T23:49:59.139Z,8.90
2019-05-14T23:53:22.315Z,8.80
2019-05-14T23:56:45.608Z,8.70
